• Join FlightAware (Why Join?)
  • Login
  • US Flag 
Rudolph Flight #1: Scheduled 
10:42PM EST


 

Airport Tracker/Info


-or-


 

Live Flight TrackerFlight Track Log ✈ SWA2852 ✈ 23-Apr-2013 ✈ KMCO - KROC

Flight Track Log - Related Links

Times and Time Zones

All times are in EDT time to prevent confusion due to time zone crossing. See the SWA2852 flight status page for this flight to view local times or setup timezone preferences in your user account.

Time Position Orientation Groundspeed Altitude Reporting Facility
EDT Latitude Longitude Course Direction KTS MPH feet Rate Location/Type
12:56PM 28.4500 -81.2833 48° Northeast 162 186 1,500  Level Orlando TRACON
12:57PM 28.5000 -81.2667 16° North 220 253 4,000 2,700 Climbing Orlando TRACON
12:58PM 28.5667 -81.2500 12° North 275 316 7,000 2,580 Climbing Orlando TRACON
01:00PM 28.7075 -81.2853 348° North 315 362 11,300 2,700 Climbing Jacksonville Center
01:01PM 28.8017 -81.3122 346° North 328 377 14,700 3,240 Climbing Jacksonville Center
01:02PM 28.8981 -81.3344 349° North 335 386 17,800 2,760 Climbing Jacksonville Center
01:03PM 28.9986 -81.3636 346° North 358 412 20,300 2,580 Climbing Jacksonville Center
01:04PM 29.1053 -81.3906 348° North 382 440 23,100 2,640 Climbing Jacksonville Center
01:05PM 29.2161 -81.4031 354° North 395 455 25,600 1,980 Climbing Jacksonville Center
01:06PM 29.3311 -81.4133 356° North 409 471 27,100 1,860 Climbing Jacksonville Center
01:07PM 29.4458 -81.4211 357° North 409 471 29,400 2,040 Climbing Jacksonville Center
01:08PM 29.5483 -81.4339 354° North 409 471 31,300 1,740 Climbing Jacksonville Center
01:09PM 29.6611 -81.4442 355° North 409 471 32,900 1,560 Climbing Jacksonville Center
01:10PM 29.7761 -81.4569 354° North 409 471 34,500 1,800 Climbing Jacksonville Center
01:11PM 29.9058 -81.4692 355° North 409 471 36,500 1,620 Climbing Jacksonville Center
01:12PM 30.0186 -81.4772 356° North 409 471 37,800 1,260 Climbing Jacksonville Center
01:13PM 30.1333 -81.4636 North 403 464 39,000 600 Climbing Jacksonville Center
01:14PM 30.2478 -81.4475 North 403 464 39,000  Level Jacksonville Center
01:15PM 30.3625 -81.4336 North 408 470 39,000  Level Jacksonville Center
01:16PM 30.4772 -81.4175 North 408 470 39,000  Level Jacksonville Center
01:17PM 30.5919 -81.4061 North 408 470 39,000  Level Jacksonville Center
01:18PM 30.7067 -81.3897 North 408 470 39,000  Level Jacksonville Center
01:19PM 30.8233 -81.3758 North 408 470 39,000  Level Jacksonville Center
01:20PM 30.9381 -81.3594 North 408 470 39,000  Level Jacksonville Center
01:21PM 31.0525 -81.3456 North 408 470 39,000  Level Jacksonville Center
01:22PM 31.1672 -81.3289 North 408 470 39,000  Level Jacksonville Center
01:23PM 31.2819 -81.3172 North 408 470 39,000  Level Jacksonville Center
01:24PM 31.3839 -81.2986 North 401 461 39,000  Level Jacksonville Center
01:25PM 31.5069 -81.2867 North 408 470 39,000  Level Jacksonville Center
01:26PM 31.6111 -81.2703 North 408 470 39,000  Level Jacksonville Center
01:27PM 31.7342 -81.2558 North 408 470 39,000  Level Jacksonville Center
01:28PM 31.8467 -81.2392 North 407 468 39,000  Level Jacksonville Center
01:29PM 31.9489 -81.2278 North 407 468 39,000  Level Jacksonville Center
01:30PM 32.0614 -81.2133 North 407 468 39,000  Level Jacksonville Center
01:31PM 32.1697 -81.1992 North 402 463 39,000  Level Jacksonville Center
01:32PM 32.2803 -81.1897 North 402 463 39,000  Level Jacksonville Center
01:33PM 32.3908 -81.1803 North 402 463 39,000  Level Jacksonville Center
01:34PM 32.5014 -81.1733 North 396 456 39,000  Level Jacksonville Center
01:35PM 32.6222 -81.1611 North 396 456 39,000  Level Jacksonville Center
01:36PM 32.7225 -81.1567 North 396 456 39,000  Level Jacksonville Center
01:37PM 32.8328 -81.1422 North 396 456 39,000  Level Jacksonville Center
01:38PM 32.9433 -81.1350 North 396 456 39,000  Level Jacksonville Center
01:39PM 33.0622 -81.1253 North 396 456 39,000  Level Jacksonville Center
01:40PM 33.1728 -81.1158 North 396 456 39,000  Level Jacksonville Center
01:41PM 33.2853 -81.1061 North 396 456 39,000  Level Jacksonville Center
01:42PM 33.3936 -81.0964 North 396 456 39,000  Level Jacksonville Center
01:43PM 33.5064 -81.0867 North 396 456 39,000  Level Jacksonville Center
01:44PM 33.6208 -81.0769 North 401 461 39,000  Level Jacksonville Center
01:45PM 33.7314 -81.0694 North 401 461 39,000  Level Jacksonville Center
01:46PM 33.8439 -81.0547 North 401 461 39,000  Level Jacksonville Center
01:47PM 33.9606 -81.0447 North 407 468 39,000  Level Jacksonville Center
01:49PM 34.1558 -81.0214 North 381 438 39,000  Level Atlanta Center
01:50PM 34.2642 -81.0125 North 388 447 39,000  Level Atlanta Center
01:51PM 34.3767 -81.0036 North 394 453 39,000  Level Atlanta Center
01:52PM 34.4889 -80.9894 North 394 453 39,000  Level Atlanta Center
01:53PM 34.6014 -80.9803 North 404 465 39,000  Level Atlanta Center
01:54PM 34.7139 -80.9711 North 404 465 39,000  Level Atlanta Center
01:55PM 34.8264 -80.9594 North 404 465 39,000  Level Atlanta Center
01:56PM 34.9386 -80.9450 North 404 465 39,000  Level Atlanta Center
01:57PM 35.0467 -80.9336 North 404 465 39,000  Level Atlanta Center
01:58PM 35.1572 -80.9217 North 404 465 39,000  Level Atlanta Center
01:59PM 35.2736 -80.9097 North 404 465 39,000  Level Atlanta Center
02:00PM 35.3881 -80.8950 North 404 465 39,000  Level Atlanta Center
02:01PM 35.5025 -80.8831 North 404 465 39,000  Level Atlanta Center
02:02PM 35.6169 -80.8683 North 404 465 39,000  Level Atlanta Center
02:03PM 35.7333 -80.8589 North 409 471 39,000  Level Atlanta Center
02:04PM 35.8478 -80.8467 North 409 471 39,000  Level Atlanta Center
02:05PM 35.9664 -80.8344 North 415 478 39,000  Level Atlanta Center
02:06PM 36.0725 -80.8225 North 420 483 39,000  Level Atlanta Center
02:07PM 36.1869 -80.8128 North 420 483 39,000  Level Atlanta Center
02:08PM 36.3033 -80.7978 North 420 483 39,000  Level Atlanta Center
02:10PM 36.5531 -80.7686 North 410 472 39,000  Level Washington Center
02:11PM 36.6592 -80.7289 17° North 402 463 39,000  Level Washington Center
02:12PM 36.7681 -80.6739 22° Northeast 403 464 39,000  Level Washington Center
02:13PM 36.8744 -80.6214 22° Northeast 416 479 39,000  Level Washington Center
02:14PM 36.9725 -80.5731 21° North 416 479 39,000  Level Washington Center
02:15PM 37.0811 -80.5203 21° North 416 479 39,000  Level Washington Center
02:16PM 37.1897 -80.4672 21° North 416 479 39,000  Level Washington Center
02:17PM 37.2961 -80.4167 21° North 421 484 39,000  Level Washington Center
02:18PM 37.4153 -80.3589 21° North 421 484 39,000  Level Washington Center
02:19PM 37.5217 -80.3028 23° Northeast 421 484 39,000  Level Washington Center
02:20PM 37.6303 -80.2492 21° North 421 484 39,000 -60 Level Washington Center
02:21PM 37.7389 -80.1928 22° Northeast 421 484 38,900 -180 Descending Washington Center
02:22PM 37.8431 -80.1411 21° North 415 478 38,700 -1,200 Descending Washington Center
02:23PM 37.9386 -80.0944 21° North 409 471 36,500 -1,860 Descending Washington Center
02:24PM 38.0408 -80.0397 23° Northeast 403 464 35,000 -780 Descending Washington Center
02:25PM 38.1406 -79.9931 20° North 391 450 35,000  Level Washington Center
02:26PM 38.2406 -79.9406 22° Northeast 386 444 35,000  Level Washington Center
02:27PM 38.3403 -79.8883 22° Northeast 381 438 35,000  Level Washington Center
02:28PM 38.4508 -79.8336 21° North 381 438 35,000  Level Washington Center
02:29PM 38.5486 -79.7808 23° Northeast 381 438 35,000  Level Washington Center
02:30PM 38.6483 -79.7306 21° North 381 438 35,000  Level Washington Center
02:32PM 38.8792 -79.6047 23° Northeast 383 441 35,000  Level Cleveland Center
02:33PM 38.9808 -79.5553 21° North 388 447 35,000  Level Cleveland Center
02:34PM 39.0781 -79.4975 25° Northeast 388 447 35,000  Level Cleveland Center
02:35PM 39.1797 -79.4478 21° North 388 447 35,000  Level Cleveland Center
02:36PM 39.2792 -79.3953 22° Northeast 388 447 35,000  Level Cleveland Center
02:37PM 39.3808 -79.3425 22° Northeast 388 447 35,000  Level Cleveland Center
02:38PM 39.4825 -79.2867 23° Northeast 388 447 35,000  Level Cleveland Center
02:39PM 39.5839 -79.2336 22° Northeast 388 447 35,000  Level Cleveland Center
02:40PM 39.6833 -79.1806 22° Northeast 388 447 35,000  Level Cleveland Center
02:41PM 39.7847 -79.1269 22° Northeast 388 447 35,000  Level Cleveland Center
02:42PM 39.8739 -79.0764 24° Northeast 388 447 35,000  Level Cleveland Center
02:43PM 39.9753 -79.0253 21° North 388 447 35,000  Level Cleveland Center
02:44PM 40.0786 -78.9633 25° Northeast 381 438 35,000  Level Cleveland Center
02:45PM 40.1800 -78.9092 22° Northeast 381 438 35,000  Level Cleveland Center
02:46PM 40.2792 -78.8550 23° Northeast 381 438 35,000  Level Cleveland Center
02:47PM 40.3764 -78.8089 20° North 376 433 35,000 -300 Level Cleveland Center
02:48PM 40.4778 -78.7625 19° North 376 433 34,400 -780 Descending Cleveland Center
02:49PM 40.5792 -78.7133 20° North 376 433 33,500 -960 Descending Cleveland Center
02:50PM 40.6806 -78.6692 18° North 381 438 32,500 -1,080 Descending Cleveland Center
02:51PM 40.7803 -78.6336 15° North 381 438 31,400 -1,020 Descending Cleveland Center
02:52PM 40.8714 -78.6006 15° North 375 432 30,500 -960 Descending Cleveland Center
02:53PM 40.9686 -78.5592 18° North 375 432 29,500 -1,020 Descending Cleveland Center
02:54PM 41.0617 -78.5206 17° North 364 419 28,500 -780 Descending Cleveland Center
02:55PM 41.1550 -78.4844 16° North 351 404 28,000 -300 Descending Cleveland Center
02:56PM 41.2500 -78.4483 16° North 351 404 28,000  Level Cleveland Center
02:57PM 41.3472 -78.4092 17° North 351 404 28,000  Level Cleveland Center
02:58PM 41.4528 -78.3639 18° North 360 414 28,000 -540 Level Cleveland Center
02:59PM 41.5458 -78.3247 17° North 355 409 27,000 -1,020 Descending Cleveland Center
03:00PM 41.6431 -78.2881 16° North 355 409 26,000 -1,020 Descending Cleveland Center
03:01PM 41.7339 -78.2458 19° North 355 409 25,000 -2,100 Descending Cleveland Center
03:02PM 41.8175 -78.1481 41° Northeast 365 420 21,800 -2,820 Descending Cleveland Center
03:03PM 41.8967 -78.0503 43° Northeast 378 435 19,400 -2,400 Descending Cleveland Center
03:04PM 41.9822 -77.9603 38° Northeast 385 443 17,100 -2,100 Descending Cleveland Center
03:05PM 42.0658 -77.8811 35° Northeast 379 436 15,300 -1,440 Descending Cleveland Center
03:06PM 42.1633 -77.8631 North 354 407 14,300 -1,020 Descending Cleveland Center
03:07PM 42.2050 -77.8556 North 363 418 13,900 -960 Descending Cleveland Center
03:07PM 42.2339 -77.8517 North 347 399 13,600 -1,140 Descending Cleveland Center
03:07PM 42.2608 -77.8450 10° North 347 399 13,300 -1,020 Descending Cleveland Center
03:08PM 42.3397 -77.8303 North 346 398 12,500 -1,020 Descending Cleveland Center
03:09PM 42.4269 -77.8122 North 338 389 11,600 -840 Descending Cleveland Center
03:10PM 42.5183 -77.7942 North 324 373 11,000 -780 Descending Cleveland Center
03:11PM 42.6075 -77.7761 North 329 379 10,100 -540 Descending Cleveland Center
03:12PM 42.6947 -77.7611 North 323 372 10,000 -300 Descending Cleveland Center
03:13PM 42.7914 -77.7142 20° North 325 374 9,500 -900 Descending Cleveland Center
03:14PM 42.8697 -77.6794 18° North 293 337 8,100 -1,500 Descending Cleveland Center
03:15PM 42.9439 -77.6419 20° North 289 333 6,500 -1,200 Descending Cleveland Center
03:16PM 43.0139 -77.6131 17° North 261 300 5,700 -1,200 Descending Cleveland Center
03:17PM 43.0819 -77.5814 19° North 237 273 4,200 -1,380 Descending Cleveland Center
03:18PM 43.1403 -77.5842 358° North 189 217 2,900 -1,200 Descending Cleveland Center
03:19PM 43.1664 -77.6258 311° West 142 163 1,800 -960 Descending Cleveland Center
03:20PM 43.1403 -77.6611 225° Southwest 128 147 1,000 -840 Descending Cleveland Center
03:22PM 43.1167 -77.6667 255° West  Level FlightAware Approximate